Latest Weather Observations for Sheoaks

IDV60901

Issued at 3:41 pm EST Thursday 30 May 2024 (issued every 10 minutes, with the page automatically refreshed every 10 minutes)

About weather observations | Map of Melbourne area stations | Latest observations for Melbourne area | Other Formats
Station Details ID: 087168 Name: SHE OAKS Lat: -37.91 Lon: 144.13 Height: 236.7 m
Data from the previous 72 hours. | See also: Recent months at Sheoaks
Date/Time
EST
Temp
°C
App
Temp
°C
Dew
Point
°C
Rel
Hum
%
Delta-T
°C
Wind Press
QNH
hPa
Press
MSL
hPa
Rain since
9am
mm
Dir  Spd
km/h
Gust
km/h
Spd
kts
Gust
kts
30/03:30pm 16.2 10.3 10.3 68 3.2 NNW 32 50 17 27 1009.0 1009.0 0.0
30/03:00pm 17.3 10.5 9.2 59 4.3 NNW 35 54 19 29 1008.7 1008.7 0.0
30/02:30pm 18.4 11.8 8.7 53 5.1 NNW 33 54 18 29 1009.1 1009.1 0.0
30/02:00pm 19.6 12.9 8.0 47 6.1 N 33 61 18 33 1008.7 1008.7 0.0
30/01:32pm 19.9 13.1 7.6 45 6.4 N 33 54 18 29 1008.9 1008.9 0.0
30/01:30pm 19.9 12.7 7.6 45 6.4 N 35 54 19 29 1008.7 1008.7 0.0
30/01:17pm 19.8 13.9 7.5 45 6.4 N 28 50 15 27 1008.9 1008.9 0.0
30/01:00pm 19.9 14.4 7.6 45 6.4 N 26 46 14 25 1009.4 1009.4 0.0
30/12:30pm 19.6 13.0 7.7 46 6.2 N 32 52 17 28 1010.0 1010.1 0.0
30/12:04pm 19.3 13.4 7.4 46 6.1 N 28 50 15 27 1010.5 1010.6 0.0
30/12:00pm 19.2 14.1 7.6 47 6.0 N 24 39 13 21 1010.9 1011.0 0.0
30/11:30am 18.8 12.2 7.9 49 5.6 N 32 54 17 29 1011.9 1011.9 0.0
30/11:28am 18.7 12.5 7.8 49 5.6 N 30 54 16 29 1011.9 1011.9 0.0
30/11:00am 18.2 14.3 8.5 53 5.1 N 19 35 10 19 1012.8 1012.8 0.0
30/10:30am 17.9 13.0 8.5 54 4.9 N 24 44 13 24 1013.3 1013.3 0.0
30/10:00am 17.8 11.7 8.4 54 4.9 N 30 44 16 24 1013.5 1013.6 0.0
30/09:48am 17.8 12.1 8.4 54 4.9 N 28 46 15 25 1013.4 1013.5 0.0
30/09:30am 17.4 10.4 8.3 55 4.7 N 35 48 19 26 1013.3 1013.3 0.0
30/09:20am 17.2 10.7 8.1 55 4.7 N 32 52 17 28 1013.2 1013.2 0.0
30/09:00am 17.1 10.6 8.0 55 4.7 N 32 46 17 25 1013.2 1013.2 0.0
30/08:30am 17.3 10.7 7.6 53 4.9 NNW 32 52 17 28 1013.5 1013.6 0.0
30/08:00am 17.3 10.7 7.6 53 4.9 N 32 50 17 27 1013.5 1013.6 0.0
30/07:53am 17.0 11.1 7.6 54 4.8 N 28 46 15 25 1013.7 1013.8 0.0
30/07:30am 16.8 10.9 7.7 55 4.6 N 28 43 15 23 1014.2 1014.3 0.0
30/07:00am 16.3 11.6 7.8 57 4.3 N 22 35 12 19 1014.7 1014.8 0.0
30/06:30am 16.5 11.8 7.7 56 4.5 N 22 35 12 19 1014.9 1015.0 0.0
30/06:00am 16.6 12.5 7.8 56 4.5 N 19 35 10 19 1015.0 1015.1 0.0
30/05:30am 15.7 12.7 7.5 58 4.1 N 13 20 7 11 1015.1 1015.2 0.0
30/05:00am 15.8 12.3 7.1 56 4.3 N 15 24 8 13 1015.1 1015.2 0.0
30/04:30am 16.0 11.4 6.7 54 4.6 N 20 30 11 16 1015.2 1015.3 0.0
30/04:00am 16.5 11.2 6.9 53 4.8 N 24 35 13 19 1015.1 1015.2 0.0
30/03:35am 16.8 10.0 6.9 52 5.0 N 32 50 17 27 1015.1 1015.2 0.0
30/03:30am 16.9 9.9 7.0 52 5.0 N 33 50 18 27 1015.0 1015.1 0.0
30/03:00am 16.8 10.8 6.9 52 5.0 N 28 48 15 26 1015.3 1015.4 0.0
30/02:30am 17.3 10.3 6.8 50 5.3 N 33 63 18 34 1015.5 1015.6 0.0
30/02:06am 17.1 9.7 6.9 51 5.1 N 35 54 19 29 1015.6 1015.7 0.0
30/02:00am 17.2 9.4 6.7 50 5.3 N 37 54 20 29 1015.3 1015.4 0.0
30/01:30am 16.9 8.8 7.0 52 5.0 N 39 61 21 33 1015.3 1015.4 0.0
30/01:00am 16.6 8.9 7.0 53 4.8 N 37 56 20 30 1015.4 1015.5 0.0
30/12:57am 16.6 8.9 7.0 53 4.8 N 37 56 20 30 1015.4 1015.5 0.0
30/12:30am 16.6 8.3 6.1 50 5.2 N 39 54 21 29 1015.5 1015.6 0.0
30/12:00am 16.6 7.3 6.1 50 5.2 N 44 67 24 36 1015.7 1015.8 0.0
 
Date/Time
EST
Temp
°C
App
Temp
°C
Dew
Point
°C
Rel
Hum
%
Delta-T
°C
Wind Press
QNH
hPa
Press
MSL
hPa
Rain since
9am
mm
Dir  Spd
km/h
Gust
km/h
Spd
kts
Gust
kts
29/11:30pm 16.5 8.1 5.5 48 5.3 N 39 63 21 34 1016.5 1016.5 0.0
29/11:00pm 16.4 9.2 4.8 46 5.5 N 32 56 17 30 1017.0 1017.1 0.0
29/10:30pm 16.4 9.1 4.4 45 5.7 N 32 50 17 27 1017.4 1017.5 0.0
29/10:04pm 16.1 9.6 4.5 46 5.5 N 28 48 15 26 1017.5 1017.6 0.0
29/10:00pm 15.9 8.9 4.3 46 5.5 N 30 43 16 23 1017.6 1017.7 0.0
29/09:30pm 15.6 9.0 4.0 46 5.4 N 28 48 15 26 1017.8 1017.9 0.0
29/09:22pm 15.5 8.8 3.9 46 5.4 N 28 46 15 25 1017.9 1018.0 0.0
29/09:00pm 15.1 8.5 4.2 48 5.1 N 28 39 15 21 1018.1 1018.2 0.0
29/08:54pm 14.9 8.3 4.3 49 5.0 N 28 39 15 21 1018.0 1018.1 0.0
29/08:30pm 13.0 8.5 4.2 55 4.1 NE 17 20 9 11 1018.8 1018.9 0.0
29/08:00pm 12.4 9.5 4.4 58 3.7 NE 9 17 5 9 1019.3 1019.4 0.0
29/07:30pm 13.3 11.3 4.5 55 4.1 NNE 4 9 2 5 1019.5 1019.6 0.0
29/07:00pm 13.2 10.3 4.9 57 3.9 NE 9 17 5 9 1019.1 1019.2 0.0
29/06:30pm 13.2 10.7 4.9 57 3.9 NE 7 11 4 6 1019.5 1019.6 0.0
29/06:00pm 13.8 10.9 4.9 55 4.2 NNE 9 17 5 9 1019.7 1019.8 0.0
29/05:30pm 15.0 10.2 4.4 49 5.0 N 19 28 10 15 1019.7 1019.8 0.0
29/05:00pm 15.4 11.8 2.9 43 5.7 NNE 11 15 6 8 1020.0 1020.1 0.0
29/04:30pm 16.7 13.7 2.0 37 6.7 NNE 7 15 4 8 1019.9 1020.0 0.0
29/04:00pm 18.2 14.0 1.7 33 7.5 N 13 20 7 11 1019.9 1020.0 0.0
29/03:30pm 19.0 15.1 1.1 30 8.1 N 11 22 6 12 1020.0 1020.1 0.0
29/03:00pm 19.0 14.0 1.1 30 8.1 N 17 32 9 17 1019.8 1019.9 0.0
29/02:30pm 19.3 13.9 1.3 30 8.2 N 19 35 10 19 1019.8 1019.9 0.0
29/02:00pm 19.1 14.0 0.7 29 8.3 N 17 33 9 18 1020.0 1020.1 0.0
29/01:30pm 19.1 12.5 -0.3 27 8.6 N 24 37 13 20 1020.2 1020.3 0.0
29/01:00pm 18.9 13.4 0.5 29 8.2 N 19 32 10 17 1020.9 1021.0 0.0
29/12:30pm 18.3 13.0 1.8 33 7.5 N 19 33 10 18 1021.5 1021.6 0.0
29/12:00pm 17.6 12.7 2.0 35 7.1 N 17 37 9 20 1022.0 1022.1 0.0
29/11:30am 17.0 11.8 2.6 38 6.6 N 19 33 10 18 1022.8 1022.9 0.0
29/11:00am 16.4 11.2 2.4 39 6.4 N 19 30 10 16 1023.2 1023.3 0.0
29/10:30am 15.9 11.6 3.0 42 5.9 N 15 24 8 13 1023.6 1023.7 0.0
29/10:00am 14.8 10.9 3.3 46 5.2 N 13 28 7 15 1023.7 1023.8 0.0
29/09:30am 13.0 10.3 3.9 54 4.2 N 7 11 4 6 1023.8 1023.9 0.0
29/09:00am 9.7 7.4 4.9 72 2.2 NNE 6 11 3 6 1023.8 1023.9 0.0
29/08:57am 9.1 7.0 5.8 80 1.5 NNE 6 7 3 4 1023.8 1023.9 0.0
29/08:30am 4.1 2.0 3.7 97 0.2 N 4 9 2 5 1024.0 1024.2 0.0
29/08:00am 2.1 -0.3 2.1 100 0.0 NNW 4 7 2 4 1024.0 1024.2 0.0
29/07:30am 1.4 -1.5 1.4 100 0.0 N 6 9 3 5 1023.7 1023.8 0.0
29/07:00am 1.7 -1.2 1.6 99 0.0 N 6 9 3 5 1023.7 1023.8 0.0
29/06:30am 2.2 -0.6 2.1 99 0.0 N 6 7 3 4 1023.7 1023.8 0.0
29/06:00am 2.5 0.1 2.1 97 0.2 NNW 4 7 2 4 1023.7 1023.8 0.0
29/05:30am 3.0 1.3 2.1 94 0.4 CALM 0 4 0 2 1023.7 1023.8 0.0
29/05:00am 3.9 2.3 2.6 91 0.5 CALM 0 4 0 2 1023.6 1023.7 0.0
29/04:30am 5.5 4.0 3.2 85 1.0 CALM 0 0 0 0 1023.8 1023.9 0.0
29/04:00am 6.9 5.1 3.2 77 1.6 S 2 4 1 2 1023.9 1024.0 0.0
29/03:30am 7.9 5.1 3.2 72 2.0 NE 7 9 4 5 1023.7 1023.8 0.0
29/03:00am 8.7 5.2 3.7 71 2.2 N 11 15 6 8 1024.0 1024.2 0.0
29/02:30am 8.0 4.1 3.5 73 2.0 N 13 17 7 9 1024.2 1024.4 0.0
29/02:00am 10.7 5.8 4.2 64 2.9 NNW 19 28 10 15 1024.2 1024.4 0.0
29/01:30am 10.0 6.2 4.0 66 2.7 N 13 17 7 9 1024.3 1024.5 0.0
29/01:00am 8.4 5.3 3.8 73 2.0 NNW 9 13 5 7 1024.7 1024.9 0.0
29/12:30am 8.5 4.7 3.9 73 2.0 N 13 15 7 8 1024.9 1025.0 0.0
29/12:00am 6.7 3.9 3.3 79 1.4 N 7 9 4 5 1025.2 1025.3 0.0
 
Date/Time
EST
Temp
°C
App
Temp
°C
Dew
Point
°C
Rel
Hum
%
Delta-T
°C
Wind Press
QNH
hPa
Press
MSL
hPa
Rain since
9am
mm
Dir  Spd
km/h
Gust
km/h
Spd
kts
Gust
kts
28/11:30pm 7.5 4.0 3.6 76 1.7 N 11 13 6 7 1025.3 1025.4 0.0
28/11:00pm 8.4 4.6 3.7 72 2.0 N 13 17 7 9 1025.5 1025.6 0.0
28/10:30pm 9.0 5.6 3.8 70 2.3 N 11 15 6 8 1025.6 1025.7 0.0
28/10:00pm 8.5 5.1 3.8 72 2.1 N 11 13 6 7 1025.7 1025.8 0.0
28/09:30pm 8.8 5.8 4.0 72 2.1 N 9 13 5 7 1025.7 1025.8 0.0
28/09:00pm 8.8 5.8 4.0 72 2.1 N 9 13 5 7 1025.9 1026.0 0.0
28/08:30pm 9.3 5.9 4.1 70 2.3 N 11 15 6 8 1025.8 1025.9 0.0
28/08:00pm 9.6 5.9 4.2 69 2.4 NNW 13 15 7 8 1025.9 1026.0 0.0
28/07:30pm 10.7 7.7 4.2 64 2.9 NNW 9 13 5 7 1025.8 1025.9 0.0
28/07:00pm 12.2 8.9 4.7 60 3.4 NNW 11 13 6 7 1025.4 1025.5 0.0
28/06:30pm 12.3 9.4 4.5 59 3.6 NNW 9 13 5 7 1025.3 1025.4 0.0
28/06:00pm 13.7 11.2 4.6 54 4.2 NNW 7 13 4 7 1025.2 1025.3 0.0
28/05:30pm 15.0 12.5 4.7 50 4.9 NNW 7 11 4 6 1025.0 1025.1 0.0
28/05:00pm 16.5 14.0 4.9 46 5.5 N 7 13 4 7 1025.1 1025.2 0.0
28/04:30pm 17.9 14.6 4.5 41 6.5 NNW 11 17 6 9 1025.2 1025.3 0.0
28/04:00pm 18.8 15.2 4.9 40 6.8 N 13 17 7 9 1025.2 1025.3 0.0
28/03:30pm 19.3 15.6 4.6 38 7.2 N 13 19 7 10 1025.2 1025.3 0.0
28/03:00pm 19.6 16.4 4.9 38 7.2 N 11 19 6 10 1025.1 1025.2 0.0
28/02:30pm 19.8 16.1 4.7 37 7.4 NNW 13 20 7 11 1025.3 1025.4 0.0
28/02:00pm 19.8 16.2 5.1 38 7.2 NNW 13 20 7 11 1025.3 1025.4 0.0
28/01:30pm 19.4 16.1 4.7 38 7.2 NW 11 19 6 10 1025.5 1025.6 0.0
28/01:00pm 19.1 15.2 5.2 40 6.8 NNW 15 20 8 11 1025.8 1025.9 0.0
28/12:30pm 19.7 16.1 5.0 38 7.2 NW 13 22 7 12 1026.1 1026.2 0.0
28/12:00pm 19.4 16.3 5.5 40 6.9 NNW 11 20 6 11 1026.4 1026.5 0.0
28/11:30am 18.5 15.0 5.4 42 6.4 N 13 19 7 10 1026.8 1026.9 0.0
28/11:00am 17.9 14.0 5.5 44 6.1 NNW 15 22 8 12 1026.9 1027.0 0.0
28/10:30am 16.9 13.0 5.5 47 5.6 NNW 15 26 8 14 1027.0 1027.1 0.0
28/10:00am 15.4 11.4 5.0 50 4.9 NNW 15 20 8 11 1026.9 1027.0 0.0
28/09:30am 14.1 10.8 4.4 52 4.5 NNW 11 15 6 8 1027.0 1027.1 0.0
28/09:00am 12.1 8.3 3.9 57 3.7 N 13 15 7 8 1026.9 1027.0 0.0
28/08:30am 10.7 7.2 3.3 60 3.3 NNW 11 13 6 7 1026.8 1026.9 0.0
28/08:00am 10.1 6.5 2.9 61 3.1 NNW 11 15 6 8 1026.6 1026.7 0.0
28/07:30am 8.9 5.6 2.7 65 2.7 NNW 9 13 5 7 1026.5 1026.6 0.0
28/07:00am 8.5 4.9 2.7 67 2.5 N 11 13 6 7 1026.4 1026.5 0.0
28/06:30am 8.1 4.8 2.6 68 2.3 N 9 11 5 6 1026.3 1026.4 0.0
28/06:00am 8.9 5.3 2.7 65 2.6 NNW 11 13 6 7 1026.1 1026.2 0.0
28/05:30am 9.2 5.2 2.8 64 2.8 N 13 17 7 9 1025.8 1025.9 0.0
28/05:00am 9.4 5.0 2.7 63 2.9 N 15 19 8 10 1025.7 1025.8 0.0
28/04:30am 9.2 5.2 2.8 64 2.8 N 13 17 7 9 1025.9 1026.0 0.0
28/04:00am 8.9 5.3 2.9 66 2.6 N 11 13 6 7 1025.9 1026.0 0.0
28/03:30am 8.6 5.4 2.8 67 2.5 N 9 15 5 8 1025.9 1026.0 0.0
28/03:00am 8.6 5.4 3.0 68 2.4 NNW 9 11 5 6 1025.9 1026.0 0.0
28/02:30am 8.2 5.0 2.9 69 2.3 NNW 9 9 5 5 1025.9 1026.0 0.0
28/02:00am 8.3 5.1 3.0 69 2.3 NNW 9 11 5 6 1026.0 1026.1 0.0
28/01:30am 8.9 5.7 3.1 67 2.5 NNW 9 13 5 7 1026.1 1026.2 0.0
28/01:00am 9.3 5.7 3.1 65 2.7 NNW 11 17 6 9 1026.1 1026.2 0.0
28/12:30am 9.5 6.0 3.3 65 2.7 NNW 11 15 6 8 1026.1 1026.2 0.0
28/12:00am 8.8 5.6 3.2 68 2.4 NNW 9 11 5 6 1026.1 1026.2 0.0
 
Date/Time
EST
Temp
°C
App
Temp
°C
Dew
Point
°C
Rel
Hum
%
Delta-T
°C
Wind Press
QNH
hPa
Press
MSL
hPa
Rain since
9am
mm
Dir  Spd
km/h
Gust
km/h
Spd
kts
Gust
kts
27/11:30pm 9.5 6.3 3.3 65 2.7 NNW 9 13 5 7 1026.0 1026.1 0.0
27/11:00pm 9.9 6.7 3.2 63 2.9 NNW 9 13 5 7 1025.9 1026.0 0.0
27/10:30pm 10.7 7.2 3.3 60 3.3 NNW 11 17 6 9 1025.9 1026.0 0.0
27/10:00pm 9.6 6.1 3.6 66 2.6 NNW 11 15 6 8 1025.9 1026.0 0.0
27/09:30pm 8.7 5.6 3.5 70 2.3 NNW 9 11 5 6 1026.0 1026.1 0.0
27/09:00pm 9.1 6.0 3.5 68 2.4 NNW 9 11 5 6 1025.9 1026.0 0.0
27/08:30pm 10.3 7.3 4.2 66 2.7 NNW 9 11 5 6 1026.0 1026.1 0.0
27/08:00pm 10.4 7.5 4.5 67 2.7 NNW 9 9 5 5 1025.7 1025.8 0.0
27/07:30pm 10.4 7.5 4.5 67 2.7 NNW 9 11 5 6 1025.5 1025.6 0.0
27/07:00pm 10.3 7.7 4.2 66 2.7 NNW 7 9 4 5 1025.3 1025.4 0.0
27/06:30pm 10.6 8.1 4.5 66 2.8 NNW 7 9 4 5 1025.2 1025.3 0.0
27/06:00pm 12.3 10.0 4.8 60 3.5 NNW 6 7 3 4 1025.1 1025.2 0.0
27/05:30pm 14.9 12.6 4.6 50 4.9 NW 6 7 3 4 1024.7 1024.9 0.0
27/05:00pm 16.8 14.3 4.5 44 5.8 NW 7 9 4 5 1024.6 1024.8 0.0
27/04:30pm 18.1 15.4 3.9 39 6.8 WNW 7 11 4 6 1024.9 1025.0 0.0
27/04:00pm 18.5 14.7 3.9 38 6.9 WNW 13 19 7 10 1024.6 1024.8 0.0

Latest Capital City Observations: Canberra | Sydney | Melbourne | Brisbane | Adelaide | Perth | Hobart | Darwin

Other formats

Comma delimited format used in spreadsheet applications
http://www.bom.gov.au/fwo/IDV60901/IDV60901.94863.axf

JavaScript Object Notation format (JSON) in row-major order
http://www.bom.gov.au/fwo/IDV60901/IDV60901.94863.json

Data quality

Most of these data are generated automatically and are frequently updated. Quality checks on data are not normally performed. It is possible for incorrect values to appear. Refer to information at About Latest Weather Observations and please check the disclaimer before using these data.